sensor_id;sensor_type;location;lat;lon;timestamp;P1;durP1;ratioP1;P2;durP2;ratioP2
21905;SDS011;11117;48.644;9.006;2023-04-01T00:00:21;5.93;;;0.80;;
21905;SDS011;11117;48.644;9.006;2023-04-01T00:02:47;3.23;;;0.70;;
21905;SDS011;11117;48.644;9.006;2023-04-01T00:05:13;5.53;;;0.83;;
21905;SDS011;11117;48.644;9.006;2023-04-01T00:07:39;3.23;;;0.83;;
21905;SDS011;11117;48.644;9.006;2023-04-01T00:10:06;5.63;;;0.90;;
21905;SDS011;11117;48.644;9.006;2023-04-01T00:12:33;6.57;;;1.20;;
21905;SDS011;11117;48.644;9.006;2023-04-01T00:14:59;4.27;;;0.90;;
21905;SDS011;11117;48.644;9.006;2023-04-01T00:17:25;4.07;;;0.83;;
21905;SDS011;11117;48.644;9.006;2023-04-01T00:19:50;5.67;;;0.80;;
21905;SDS011;11117;48.644;9.006;2023-04-01T00:22:16;5.20;;;1.13;;
21905;SDS011;11117;48.644;9.006;2023-04-01T00:24:42;4.60;;;1.07;;
21905;SDS011;11117;48.644;9.006;2023-04-01T00:27:07;2.40;;;0.77;;
21905;SDS011;11117;48.644;9.006;2023-04-01T00:29:33;5.87;;;1.00;;
21905;SDS011;11117;48.644;9.006;2023-04-01T00:31:59;3.93;;;0.80;;
21905;SDS011;11117;48.644;9.006;2023-04-01T00:34:25;3.63;;;0.87;;
21905;SDS011;11117;48.644;9.006;2023-04-01T00:36:51;3.57;;;0.70;;
21905;SDS011;11117;48.644;9.006;2023-04-01T00:39:18;5.73;;;0.83;;
21905;SDS011;11117;48.644;9.006;2023-04-01T00:41:44;2.80;;;0.70;;
21905;SDS011;11117;48.644;9.006;2023-04-01T00:44:20;2.87;;;0.80;;
21905;SDS011;11117;48.644;9.006;2023-04-01T00:46:48;2.67;;;0.93;;
21905;SDS011;11117;48.644;9.006;2023-04-01T00:49:14;4.13;;;0.80;;
21905;SDS011;11117;48.644;9.006;2023-04-01T00:51:42;4.13;;;0.80;;
21905;SDS011;11117;48.644;9.006;2023-04-01T00:54:10;3.87;;;0.63;;
21905;SDS011;11117;48.644;9.006;2023-04-01T00:56:38;3.27;;;0.90;;
21905;SDS011;11117;48.644;9.006;2023-04-01T00:59:09;5.00;;;0.90;;
21905;SDS011;11117;48.644;9.006;2023-04-01T01:01:39;3.70;;;0.60;;
21905;SDS011;11117;48.644;9.006;2023-04-01T01:04:05;2.83;;;0.60;;
21905;SDS011;11117;48.644;9.006;2023-04-01T01:12:16;4.43;;;0.90;;
21905;SDS011;11117;48.644;9.006;2023-04-01T01:26:09;2.87;;;0.60;;
21905;SDS011;11117;48.644;9.006;2023-04-01T01:28:46;2.97;;;0.60;;
21905;SDS011;11117;48.644;9.006;2023-04-01T01:34:27;2.43;;;0.50;;
21905;SDS011;11117;48.644;9.006;2023-04-01T01:37:01;3.80;;;0.60;;
21905;SDS011;11117;48.644;9.006;2023-04-01T01:39:33;3.70;;;0.70;;
21905;SDS011;11117;48.644;9.006;2023-04-01T01:42:02;3.63;;;0.60;;
21905;SDS011;11117;48.644;9.006;2023-04-01T01:44:30;3.07;;;0.60;;
21905;SDS011;11117;48.644;9.006;2023-04-01T01:46:58;3.87;;;0.50;;
21905;SDS011;11117;48.644;9.006;2023-04-01T01:49:24;2.40;;;0.57;;
21905;SDS011;11117;48.644;9.006;2023-04-01T01:51:52;1.20;;;0.40;;
21905;SDS011;11117;48.644;9.006;2023-04-01T01:54:18;2.80;;;0.40;;
21905;SDS011;11117;48.644;9.006;2023-04-01T01:56:45;1.33;;;0.33;;
21905;SDS011;11117;48.644;9.006;2023-04-01T01:59:14;2.03;;;0.40;;
21905;SDS011;11117;48.644;9.006;2023-04-01T02:01:44;1.83;;;0.40;;
21905;SDS011;11117;48.644;9.006;2023-04-01T02:04:13;2.87;;;0.30;;
21905;SDS011;11117;48.644;9.006;2023-04-01T02:06:43;1.40;;;0.40;;
21905;SDS011;11117;48.644;9.006;2023-04-01T02:09:17;1.00;;;0.30;;
21905;SDS011;11117;48.644;9.006;2023-04-01T02:14:15;4.43;;;0.30;;
21905;SDS011;11117;48.644;9.006;2023-04-01T02:16:51;1.80;;;0.30;;
21905;SDS011;11117;48.644;9.006;2023-04-01T02:19:24;2.80;;;0.30;;
21905;SDS011;11117;48.644;9.006;2023-04-01T02:21:59;2.03;;;0.30;;
21905;SDS011;11117;48.644;9.006;2023-04-01T02:24:28;2.33;;;0.40;;
21905;SDS011;11117;48.644;9.006;2023-04-01T02:26:58;1.90;;;0.23;;
21905;SDS011;11117;48.644;9.006;2023-04-01T02:29:24;1.90;;;0.30;;
21905;SDS011;11117;48.644;9.006;2023-04-01T02:31:51;0.67;;;0.20;;
21905;SDS011;11117;48.644;9.006;2023-04-01T02:34:18;1.50;;;0.37;;
21905;SDS011;11117;48.644;9.006;2023-04-01T02:36:45;0.93;;;0.40;;
21905;SDS011;11117;48.644;9.006;2023-04-01T02:39:12;2.03;;;0.23;;
21905;SDS011;11117;48.644;9.006;2023-04-01T02:41:42;1.97;;;0.40;;
21905;SDS011;11117;48.644;9.006;2023-04-01T02:44:09;3.47;;;0.40;;
21905;SDS011;11117;48.644;9.006;2023-04-01T02:46:36;2.70;;;0.30;;
21905;SDS011;11117;48.644;9.006;2023-04-01T02:49:02;1.17;;;0.30;;
21905;SDS011;11117;48.644;9.006;2023-04-01T02:51:28;1.47;;;0.20;;
21905;SDS011;11117;48.644;9.006;2023-04-01T02:53:54;0.90;;;0.30;;
21905;SDS011;11117;48.644;9.006;2023-04-01T02:56:19;1.00;;;0.30;;
21905;SDS011;11117;48.644;9.006;2023-04-01T02:58:45;1.00;;;0.27;;
21905;SDS011;11117;48.644;9.006;2023-04-01T03:01:11;0.87;;;0.30;;
21905;SDS011;11117;48.644;9.006;2023-04-01T03:03:37;0.73;;;0.20;;
21905;SDS011;11117;48.644;9.006;2023-04-01T03:06:06;1.73;;;0.40;;
21905;SDS011;11117;48.644;9.006;2023-04-01T03:08:32;1.13;;;0.40;;
21905;SDS011;11117;48.644;9.006;2023-04-01T03:10:58;1.30;;;0.30;;
21905;SDS011;11117;48.644;9.006;2023-04-01T03:13:24;1.87;;;0.40;;
21905;SDS011;11117;48.644;9.006;2023-04-01T03:15:49;0.83;;;0.30;;
21905;SDS011;11117;48.644;9.006;2023-04-01T03:18:15;2.00;;;0.37;;
21905;SDS011;11117;48.644;9.006;2023-04-01T03:20:40;0.67;;;0.20;;
21905;SDS011;11117;48.644;9.006;2023-04-01T03:23:07;0.50;;;0.20;;
21905;SDS011;11117;48.644;9.006;2023-04-01T03:25:32;0.80;;;0.20;;
21905;SDS011;11117;48.644;9.006;2023-04-01T03:27:58;0.80;;;0.40;;
21905;SDS011;11117;48.644;9.006;2023-04-01T03:30:24;2.97;;;0.30;;
21905;SDS011;11117;48.644;9.006;2023-04-01T03:32:49;2.63;;;0.27;;
21905;SDS011;11117;48.644;9.006;2023-04-01T03:35:15;1.20;;;0.20;;
21905;SDS011;11117;48.644;9.006;2023-04-01T03:37:40;1.10;;;0.30;;
21905;SDS011;11117;48.644;9.006;2023-04-01T03:40:07;1.27;;;0.30;;
21905;SDS011;11117;48.644;9.006;2023-04-01T03:42:32;0.97;;;0.20;;
21905;SDS011;11117;48.644;9.006;2023-04-01T03:44:58;1.63;;;0.40;;
21905;SDS011;11117;48.644;9.006;2023-04-01T03:47:23;2.67;;;0.60;;
21905;SDS011;11117;48.644;9.006;2023-04-01T03:49:49;2.27;;;0.43;;
21905;SDS011;11117;48.644;9.006;2023-04-01T03:52:15;0.70;;;0.30;;
21905;SDS011;11117;48.644;9.006;2023-04-01T03:54:40;0.77;;;0.33;;
21905;SDS011;11117;48.644;9.006;2023-04-01T03:57:06;4.90;;;0.30;;
21905;SDS011;11117;48.644;9.006;2023-04-01T03:59:31;0.33;;;0.20;;
21905;SDS011;11117;48.644;9.006;2023-04-01T04:01:57;1.47;;;0.53;;
21905;SDS011;11117;48.644;9.006;2023-04-01T04:04:23;0.33;;;0.20;;
21905;SDS011;11117;48.644;9.006;2023-04-01T04:06:50;0.43;;;0.30;;
21905;SDS011;11117;48.644;9.006;2023-04-01T04:09:15;0.73;;;0.13;;
21905;SDS011;11117;48.644;9.006;2023-04-01T04:11:41;1.63;;;0.40;;
21905;SDS011;11117;48.644;9.006;2023-04-01T04:14:06;1.17;;;0.30;;
21905;SDS011;11117;48.644;9.006;2023-04-01T04:16:34;0.93;;;0.30;;
21905;SDS011;11117;48.644;9.006;2023-04-01T04:19:00;1.03;;;0.30;;
21905;SDS011;11117;48.644;9.006;2023-04-01T04:21:26;4.53;;;0.37;;
21905;SDS011;11117;48.644;9.006;2023-04-01T04:23:51;1.47;;;0.30;;
21905;SDS011;11117;48.644;9.006;2023-04-01T04:26:17;0.33;;;0.30;;
21905;SDS011;11117;48.644;9.006;2023-04-01T04:28:42;1.83;;;0.40;;
21905;SDS011;11117;48.644;9.006;2023-04-01T04:31:08;1.53;;;0.40;;
21905;SDS011;11117;48.644;9.006;2023-04-01T04:33:34;2.60;;;0.40;;
21905;SDS011;11117;48.644;9.006;2023-04-01T04:36:00;2.63;;;0.60;;
21905;SDS011;11117;48.644;9.006;2023-04-01T04:38:27;3.03;;;1.13;;
21905;SDS011;11117;48.644;9.006;2023-04-01T04:40:53;1.87;;;0.50;;
21905;SDS011;11117;48.644;9.006;2023-04-01T04:43:19;1.80;;;0.40;;
21905;SDS011;11117;48.644;9.006;2023-04-01T04:45:45;2.63;;;0.50;;
21905;SDS011;11117;48.644;9.006;2023-04-01T04:48:11;2.93;;;0.53;;
21905;SDS011;11117;48.644;9.006;2023-04-01T04:50:39;2.77;;;0.53;;
21905;SDS011;11117;48.644;9.006;2023-04-01T04:53:05;3.30;;;0.70;;
21905;SDS011;11117;48.644;9.006;2023-04-01T04:55:31;2.67;;;0.53;;
21905;SDS011;11117;48.644;9.006;2023-04-01T04:57:56;4.23;;;0.70;;
21905;SDS011;11117;48.644;9.006;2023-04-01T05:00:22;3.27;;;0.80;;
21905;SDS011;11117;48.644;9.006;2023-04-01T05:02:48;5.73;;;0.90;;
21905;SDS011;11117;48.644;9.006;2023-04-01T05:05:13;3.77;;;0.77;;
21905;SDS011;11117;48.644;9.006;2023-04-01T05:07:39;4.78;;;0.80;;
21905;SDS011;11117;48.644;9.006;2023-04-01T05:10:05;4.40;;;0.80;;
21905;SDS011;11117;48.644;9.006;2023-04-01T05:12:31;3.90;;;0.70;;
21905;SDS011;11117;48.644;9.006;2023-04-01T05:14:56;2.37;;;0.57;;
21905;SDS011;11117;48.644;9.006;2023-04-01T05:17:22;2.53;;;0.53;;
21905;SDS011;11117;48.644;9.006;2023-04-01T05:19:47;1.90;;;0.50;;
21905;SDS011;11117;48.644;9.006;2023-04-01T05:22:13;1.33;;;0.40;;
21905;SDS011;11117;48.644;9.006;2023-04-01T05:24:38;8.23;;;1.07;;
21905;SDS011;11117;48.644;9.006;2023-04-01T05:27:04;3.23;;;0.50;;
21905;SDS011;11117;48.644;9.006;2023-04-01T05:29:29;2.93;;;0.50;;
21905;SDS011;11117;48.644;9.006;2023-04-01T05:31:55;1.33;;;0.30;;
21905;SDS011;11117;48.644;9.006;2023-04-01T05:34:20;1.80;;;0.60;;
21905;SDS011;11117;48.644;9.006;2023-04-01T05:36:47;1.80;;;0.50;;
21905;SDS011;11117;48.644;9.006;2023-04-01T05:39:12;5.63;;;0.60;;
21905;SDS011;11117;48.644;9.006;2023-04-01T05:41:38;1.43;;;0.40;;
21905;SDS011;11117;48.644;9.006;2023-04-01T05:44:04;1.93;;;0.53;;
21905;SDS011;11117;48.644;9.006;2023-04-01T05:46:30;2.47;;;0.63;;
21905;SDS011;11117;48.644;9.006;2023-04-01T05:48:56;2.93;;;0.60;;
21905;SDS011;11117;48.644;9.006;2023-04-01T05:51:22;2.70;;;0.60;;
21905;SDS011;11117;48.644;9.006;2023-04-01T05:53:48;2.43;;;0.63;;
21905;SDS011;11117;48.644;9.006;2023-04-01T05:56:14;5.00;;;0.77;;
21905;SDS011;11117;48.644;9.006;2023-04-01T05:58:40;3.30;;;0.57;;
21905;SDS011;11117;48.644;9.006;2023-04-01T06:01:06;2.87;;;0.50;;
21905;SDS011;11117;48.644;9.006;2023-04-01T06:03:33;2.80;;;0.57;;
21905;SDS011;11117;48.644;9.006;2023-04-01T06:06:00;4.40;;;0.60;;
21905;SDS011;11117;48.644;9.006;2023-04-01T06:08:25;4.90;;;0.60;;
21905;SDS011;11117;48.644;9.006;2023-04-01T06:26:56;2.00;;;0.40;;
21905;SDS011;11117;48.644;9.006;2023-04-01T06:29:44;3.23;;;0.50;;
21905;SDS011;11117;48.644;9.006;2023-04-01T06:32:26;2.27;;;0.50;;
21905;SDS011;11117;48.644;9.006;2023-04-01T06:35:19;4.30;;;0.70;;
21905;SDS011;11117;48.644;9.006;2023-04-01T06:38:01;2.07;;;0.50;;
21905;SDS011;11117;48.644;9.006;2023-04-01T06:46:19;2.10;;;0.47;;
21905;SDS011;11117;48.644;9.006;2023-04-01T06:54:49;1.73;;;0.40;;
21905;SDS011;11117;48.644;9.006;2023-04-01T06:57:43;0.90;;;0.40;;
21905;SDS011;11117;48.644;9.006;2023-04-01T07:05:32;1.63;;;0.40;;
21905;SDS011;11117;48.644;9.006;2023-04-01T07:07:59;1.87;;;0.70;;
21905;SDS011;11117;48.644;9.006;2023-04-01T07:13:20;2.93;;;0.50;;
21905;SDS011;11117;48.644;9.006;2023-04-01T07:19:08;1.90;;;0.50;;
21905;SDS011;11117;48.644;9.006;2023-04-01T07:21:58;2.00;;;0.50;;
21905;SDS011;11117;48.644;9.006;2023-04-01T07:24:34;1.90;;;0.50;;
21905;SDS011;11117;48.644;9.006;2023-04-01T07:27:02;1.70;;;0.43;;
21905;SDS011;11117;48.644;9.006;2023-04-01T07:29:30;1.20;;;0.40;;
21905;SDS011;11117;48.644;9.006;2023-04-01T07:37:39;1.80;;;0.67;;
21905;SDS011;11117;48.644;9.006;2023-04-01T07:43:26;1.03;;;0.50;;
21905;SDS011;11117;48.644;9.006;2023-04-01T07:49:06;0.93;;;0.40;;
21905;SDS011;11117;48.644;9.006;2023-04-01T07:51:58;2.67;;;0.60;;
21905;SDS011;11117;48.644;9.006;2023-04-01T07:59:53;2.43;;;0.60;;
21905;SDS011;11117;48.644;9.006;2023-04-01T08:10:52;1.10;;;0.60;;
21905;SDS011;11117;48.644;9.006;2023-04-01T08:21:14;1.67;;;0.50;;
21905;SDS011;11117;48.644;9.006;2023-04-01T08:23:47;4.57;;;0.90;;
21905;SDS011;11117;48.644;9.006;2023-04-01T08:31:45;2.77;;;0.60;;
21905;SDS011;11117;48.644;9.006;2023-04-01T08:34:21;1.00;;;0.40;;
21905;SDS011;11117;48.644;9.006;2023-04-01T08:36:55;3.13;;;0.70;;
21905;SDS011;11117;48.644;9.006;2023-04-01T08:39:29;3.83;;;0.80;;
21905;SDS011;11117;48.644;9.006;2023-04-01T08:48:10;4.53;;;0.60;;
21905;SDS011;11117;48.644;9.006;2023-04-01T08:56:40;2.63;;;0.50;;
21905;SDS011;11117;48.644;9.006;2023-04-01T08:59:34;1.43;;;0.50;;
21905;SDS011;11117;48.644;9.006;2023-04-01T09:02:19;5.37;;;0.80;;
21905;SDS011;11117;48.644;9.006;2023-04-01T09:16:39;0.87;;;0.30;;
21905;SDS011;11117;48.644;9.006;2023-04-01T09:22:17;0.50;;;0.40;;
21905;SDS011;11117;48.644;9.006;2023-04-01T09:32:51;0.40;;;0.20;;
21905;SDS011;11117;48.644;9.006;2023-04-01T09:35:43;1.63;;;0.40;;
21905;SDS011;11117;48.644;9.006;2023-04-01T09:38:23;0.27;;;0.20;;
21905;SDS011;11117;48.644;9.006;2023-04-01T09:40:54;2.63;;;0.40;;
21905;SDS011;11117;48.644;9.006;2023-04-01T09:43:26;1.33;;;0.50;;
21905;SDS011;11117;48.644;9.006;2023-04-01T09:51:27;1.73;;;0.27;;
21905;SDS011;11117;48.644;9.006;2023-04-01T09:54:22;0.87;;;0.20;;
21905;SDS011;11117;48.644;9.006;2023-04-01T10:00:16;0.30;;;0.23;;
21905;SDS011;11117;48.644;9.006;2023-04-01T10:02:55;0.70;;;0.20;;
21905;SDS011;11117;48.644;9.006;2023-04-01T10:25:10;0.40;;;0.40;;
21905;SDS011;11117;48.644;9.006;2023-04-01T10:36:09;0.47;;;0.20;;
21905;SDS011;11117;48.644;9.006;2023-04-01T10:41:37;0.27;;;0.20;;
21905;SDS011;11117;48.644;9.006;2023-04-01T10:44:11;0.40;;;0.20;;
21905;SDS011;11117;48.644;9.006;2023-04-01T10:47:18;0.20;;;0.20;;
21905;SDS011;11117;48.644;9.006;2023-04-01T10:50:27;1.07;;;0.33;;
21905;SDS011;11117;48.644;9.006;2023-04-01T11:12:28;0.40;;;0.17;;
21905;SDS011;11117;48.644;9.006;2023-04-01T11:18:35;0.67;;;0.27;;
21905;SDS011;11117;48.644;9.006;2023-04-01T11:24:25;0.40;;;0.17;;
21905;SDS011;11117;48.644;9.006;2023-04-01T11:38:22;0.70;;;0.20;;
21905;SDS011;11117;48.644;9.006;2023-04-01T11:40:52;0.30;;;0.10;;
21905;SDS011;11117;48.644;9.006;2023-04-01T11:49:31;0.20;;;0.20;;
21905;SDS011;11117;48.644;9.006;2023-04-01T11:52:15;0.97;;;0.30;;
21905;SDS011;11117;48.644;9.006;2023-04-01T12:03:41;0.13;;;0.13;;
21905;SDS011;11117;48.644;9.006;2023-04-01T12:22:46;0.10;;;0.10;;
21905;SDS011;11117;48.644;9.006;2023-04-01T12:28:06;0.10;;;0.00;;
21905;SDS011;11117;48.644;9.006;2023-04-01T12:42:34;0.67;;;0.20;;
21905;SDS011;11117;48.644;9.006;2023-04-01T12:48:10;0.70;;;0.10;;
21905;SDS011;11117;48.644;9.006;2023-04-01T12:56:14;0.70;;;0.30;;
21905;SDS011;11117;48.644;9.006;2023-04-01T12:59:17;0.20;;;0.20;;
21905;SDS011;11117;48.644;9.006;2023-04-01T13:01:59;0.20;;;0.20;;
21905;SDS011;11117;48.644;9.006;2023-04-01T13:16:05;0.30;;;0.10;;
21905;SDS011;11117;48.644;9.006;2023-04-01T13:24:02;1.57;;;0.40;;
21905;SDS011;11117;48.644;9.006;2023-04-01T13:32:36;1.33;;;0.10;;
21905;SDS011;11117;48.644;9.006;2023-04-01T13:38:05;0.30;;;0.30;;
21905;SDS011;11117;48.644;9.006;2023-04-01T13:43:57;0.30;;;0.20;;
21905;SDS011;11117;48.644;9.006;2023-04-01T13:51:59;0.30;;;0.10;;
21905;SDS011;11117;48.644;9.006;2023-04-01T13:57:52;0.23;;;0.10;;
21905;SDS011;11117;48.644;9.006;2023-04-01T14:08:46;0.27;;;0.13;;
21905;SDS011;11117;48.644;9.006;2023-04-01T14:19:39;1.03;;;0.30;;
21905;SDS011;11117;48.644;9.006;2023-04-01T14:25:10;0.40;;;0.10;;
21905;SDS011;11117;48.644;9.006;2023-04-01T14:30:57;0.80;;;0.20;;
21905;SDS011;11117;48.644;9.006;2023-04-01T14:33:58;0.20;;;0.03;;
21905;SDS011;11117;48.644;9.006;2023-04-01T14:51:18;0.53;;;0.27;;
21905;SDS011;11117;48.644;9.006;2023-04-01T14:59:28;0.63;;;0.30;;
21905;SDS011;11117;48.644;9.006;2023-04-01T15:10:08;0.47;;;0.20;;
21905;SDS011;11117;48.644;9.006;2023-04-01T15:16:05;0.20;;;0.20;;
21905;SDS011;11117;48.644;9.006;2023-04-01T15:28:06;2.97;;;0.70;;
21905;SDS011;11117;48.644;9.006;2023-04-01T15:36:33;0.33;;;0.30;;
21905;SDS011;11117;48.644;9.006;2023-04-01T15:39:46;0.20;;;0.20;;
21905;SDS011;11117;48.644;9.006;2023-04-01T15:47:32;0.53;;;0.40;;
21905;SDS011;11117;48.644;9.006;2023-04-01T15:55:26;0.80;;;0.30;;
21905;SDS011;11117;48.644;9.006;2023-04-01T16:00:49;0.60;;;0.43;;
21905;SDS011;11117;48.644;9.006;2023-04-01T16:03:33;1.27;;;0.50;;
21905;SDS011;11117;48.644;9.006;2023-04-01T16:12:15;0.40;;;0.30;;
21905;SDS011;11117;48.644;9.006;2023-04-01T16:23:13;2.57;;;0.40;;
21905;SDS011;11117;48.644;9.006;2023-04-01T16:29:04;1.90;;;0.90;;
21905;SDS011;11117;48.644;9.006;2023-04-01T16:37:04;0.80;;;0.50;;
21905;SDS011;11117;48.644;9.006;2023-04-01T16:48:11;2.23;;;0.70;;
21905;SDS011;11117;48.644;9.006;2023-04-01T16:50:48;3.23;;;1.03;;
21905;SDS011;11117;48.644;9.006;2023-04-01T16:53:19;2.63;;;1.17;;
21905;SDS011;11117;48.644;9.006;2023-04-01T16:55:57;2.43;;;1.00;;
21905;SDS011;11117;48.644;9.006;2023-04-01T16:58:41;1.97;;;0.70;;
21905;SDS011;11117;48.644;9.006;2023-04-01T17:01:24;5.73;;;1.07;;
21905;SDS011;11117;48.644;9.006;2023-04-01T17:04:11;3.40;;;0.87;;
21905;SDS011;11117;48.644;9.006;2023-04-01T17:09:56;3.17;;;1.03;;
21905;SDS011;11117;48.644;9.006;2023-04-01T17:15:37;1.97;;;0.90;;
21905;SDS011;11117;48.644;9.006;2023-04-01T17:23:32;2.07;;;0.80;;
21905;SDS011;11117;48.644;9.006;2023-04-01T17:31:35;1.97;;;1.00;;
21905;SDS011;11117;48.644;9.006;2023-04-01T17:47:39;3.93;;;1.23;;
21905;SDS011;11117;48.644;9.006;2023-04-01T17:50:14;3.57;;;1.27;;
21905;SDS011;11117;48.644;9.006;2023-04-01T17:58:20;3.63;;;1.00;;
21905;SDS011;11117;48.644;9.006;2023-04-01T18:01:08;2.83;;;1.27;;
21905;SDS011;11117;48.644;9.006;2023-04-01T18:09:32;2.20;;;1.03;;
21905;SDS011;11117;48.644;9.006;2023-04-01T18:18:05;3.63;;;1.17;;
21905;SDS011;11117;48.644;9.006;2023-04-01T18:20:54;2.57;;;0.90;;
21905;SDS011;11117;48.644;9.006;2023-04-01T18:23:45;1.93;;;0.60;;
21905;SDS011;11117;48.644;9.006;2023-04-01T18:31:42;2.77;;;1.17;;
21905;SDS011;11117;48.644;9.006;2023-04-01T18:34:15;1.80;;;1.10;;
21905;SDS011;11117;48.644;9.006;2023-04-01T18:37:25;1.80;;;0.50;;
21905;SDS011;11117;48.644;9.006;2023-04-01T18:45:51;2.77;;;2.00;;
21905;SDS011;11117;48.644;9.006;2023-04-01T18:51:11;0.90;;;0.67;;
21905;SDS011;11117;48.644;9.006;2023-04-01T18:53:43;1.27;;;0.70;;
21905;SDS011;11117;48.644;9.006;2023-04-01T18:56:11;2.47;;;0.67;;
21905;SDS011;11117;48.644;9.006;2023-04-01T18:58:48;0.77;;;0.70;;
21905;SDS011;11117;48.644;9.006;2023-04-01T19:04:10;2.20;;;0.50;;
21905;SDS011;11117;48.644;9.006;2023-04-01T19:06:48;2.97;;;0.40;;
21905;SDS011;11117;48.644;9.006;2023-04-01T19:09:19;2.73;;;0.60;;
21905;SDS011;11117;48.644;9.006;2023-04-01T19:12:03;3.57;;;0.97;;
21905;SDS011;11117;48.644;9.006;2023-04-01T19:25:38;1.40;;;1.23;;
21905;SDS011;11117;48.644;9.006;2023-04-01T19:30:59;0.60;;;0.60;;
21905;SDS011;11117;48.644;9.006;2023-04-01T19:33:58;0.50;;;0.50;;
21905;SDS011;11117;48.644;9.006;2023-04-01T19:51:06;2.63;;;1.47;;
21905;SDS011;11117;48.644;9.006;2023-04-01T19:53:58;2.17;;;1.23;;
21905;SDS011;11117;48.644;9.006;2023-04-01T19:59:16;4.40;;;2.53;;
21905;SDS011;11117;48.644;9.006;2023-04-01T20:04:41;16.03;;;7.70;;
21905;SDS011;11117;48.644;9.006;2023-04-01T20:07:18;2.87;;;1.80;;
21905;SDS011;11117;48.644;9.006;2023-04-01T20:15:47;2.57;;;1.30;;
21905;SDS011;11117;48.644;9.006;2023-04-01T20:18:33;2.43;;;1.47;;
21905;SDS011;11117;48.644;9.006;2023-04-01T20:21:19;2.43;;;1.60;;
21905;SDS011;11117;48.644;9.006;2023-04-01T20:23:54;3.37;;;1.30;;
21905;SDS011;11117;48.644;9.006;2023-04-01T20:26:43;3.93;;;1.30;;
21905;SDS011;11117;48.644;9.006;2023-04-01T20:31:56;3.03;;;1.83;;
21905;SDS011;11117;48.644;9.006;2023-04-01T20:40:23;3.87;;;2.83;;
21905;SDS011;11117;48.644;9.006;2023-04-01T20:45:56;3.20;;;2.90;;
21905;SDS011;11117;48.644;9.006;2023-04-01T20:51:31;5.00;;;3.50;;
21905;SDS011;11117;48.644;9.006;2023-04-01T20:54:12;8.70;;;5.23;;
21905;SDS011;11117;48.644;9.006;2023-04-01T21:05:09;3.43;;;2.43;;
21905;SDS011;11117;48.644;9.006;2023-04-01T21:07:54;4.20;;;2.50;;
21905;SDS011;11117;48.644;9.006;2023-04-01T21:11:01;3.87;;;1.97;;
21905;SDS011;11117;48.644;9.006;2023-04-01T21:36:03;2.53;;;0.97;;
21905;SDS011;11117;48.644;9.006;2023-04-01T21:46:39;2.10;;;0.80;;
21905;SDS011;11117;48.644;9.006;2023-04-01T21:49:18;1.50;;;0.80;;
21905;SDS011;11117;48.644;9.006;2023-04-01T21:55:17;1.93;;;0.80;;
21905;SDS011;11117;48.644;9.006;2023-04-01T22:00:43;3.93;;;0.87;;
21905;SDS011;11117;48.644;9.006;2023-04-01T22:03:36;1.90;;;0.80;;
21905;SDS011;11117;48.644;9.006;2023-04-01T22:06:27;0.93;;;0.70;;
21905;SDS011;11117;48.644;9.006;2023-04-01T22:14:40;2.07;;;0.97;;
21905;SDS011;11117;48.644;9.006;2023-04-01T22:17:14;1.97;;;1.00;;
21905;SDS011;11117;48.644;9.006;2023-04-01T22:19:59;3.17;;;1.00;;
21905;SDS011;11117;48.644;9.006;2023-04-01T22:28:23;3.43;;;0.97;;
21905;SDS011;11117;48.644;9.006;2023-04-01T22:30:57;1.23;;;0.73;;
21905;SDS011;11117;48.644;9.006;2023-04-01T22:56:15;1.37;;;0.93;;
21905;SDS011;11117;48.644;9.006;2023-04-01T22:58:50;2.13;;;1.00;;
21905;SDS011;11117;48.644;9.006;2023-04-01T23:01:23;2.93;;;0.70;;
21905;SDS011;11117;48.644;9.006;2023-04-01T23:03:52;2.00;;;1.10;;
21905;SDS011;11117;48.644;9.006;2023-04-01T23:06:29;2.00;;;0.73;;
21905;SDS011;11117;48.644;9.006;2023-04-01T23:11:44;1.37;;;0.50;;
21905;SDS011;11117;48.644;9.006;2023-04-01T23:19:41;1.30;;;0.73;;
21905;SDS011;11117;48.644;9.006;2023-04-01T23:22:28;1.33;;;0.50;;
21905;SDS011;11117;48.644;9.006;2023-04-01T23:31:00;1.27;;;0.50;;
21905;SDS011;11117;48.644;9.006;2023-04-01T23:33:29;0.67;;;0.63;;
21905;SDS011;11117;48.644;9.006;2023-04-01T23:36:10;0.60;;;0.60;;
21905;SDS011;11117;48.644;9.006;2023-04-01T23:38:39;0.70;;;0.60;;
21905;SDS011;11117;48.644;9.006;2023-04-01T23:41:07;1.67;;;0.50;;
21905;SDS011;11117;48.644;9.006;2023-04-01T23:43:44;0.90;;;0.60;;
21905;SDS011;11117;48.644;9.006;2023-04-01T23:46:13;0.60;;;0.60;;
21905;SDS011;11117;48.644;9.006;2023-04-01T23:48:40;0.77;;;0.60;;
21905;SDS011;11117;48.644;9.006;2023-04-01T23:51:20;0.93;;;0.63;;
21905;SDS011;11117;48.644;9.006;2023-04-01T23:53:46;2.70;;;0.80;;
21905;SDS011;11117;48.644;9.006;2023-04-01T23:56:15;0.60;;;0.60;;
21905;SDS011;11117;48.644;9.006;2023-04-01T23:58:48;1.83;;;0.70;;
